Normandy Beach, New Jersey
Current Conditions -  °F | °C
As of 3:35 AM on Saturday 29 Nov 2014 (Local Time) from KBLM Reporting Station
Clear Clear  
Wind Chill: 23°   Ceiling: Unl
Heat Index: 23°   Visibility: 10mi
Dew Point: 12°   Wind: 3mph
Humidity: 63%   Direction: 310°NW
Pressure: 30.31"   Gusts: NA
Location:  40°N, 74.06°W
Report Text: KBLM 290835Z AUTO 31003KT 10SM CLR M05/M11 A3031 RMK AO1
Loading
Personal Weather Stations






























Interactive Weather Map New forecast layout! Learn more

10-Day Weather Forecast

Advertisements
Track Severe Weather on mobile